createdAt,value
2022-10-18T00:00:50.178Z,13.38
2022-10-18T00:03:17.266Z,13.49
2022-10-18T00:05:44.347Z,13.45
2022-10-18T00:08:11.340Z,13.39
2022-10-18T00:10:38.569Z,13.48
2022-10-18T00:13:05.950Z,13.45
2022-10-18T00:15:32.986Z,13.51
2022-10-18T00:18:00.038Z,13.49
2022-10-18T00:20:27.059Z,13.51
2022-10-18T00:22:54.256Z,13.43
2022-10-18T00:25:21.232Z,13.39
2022-10-18T00:27:48.376Z,13.45
2022-10-18T00:30:15.445Z,13.43
2022-10-18T00:32:42.520Z,13.47
2022-10-18T00:35:09.783Z,13.51
2022-10-18T00:37:36.859Z,13.49
2022-10-18T00:40:04.446Z,13.51
2022-10-18T00:42:32.915Z,13.47
2022-10-18T00:45:23.145Z,13.50
2022-10-18T00:48:00.724Z,13.50
2022-10-18T00:50:31.065Z,13.43
2022-10-18T00:52:59.568Z,13.41
2022-10-18T00:55:27.716Z,13.32
2022-10-18T00:57:55.594Z,13.37
2022-10-18T01:00:22.793Z,13.37
2022-10-18T01:02:49.830Z,13.24
2022-10-18T01:05:18.239Z,13.28
2022-10-18T01:07:53.830Z,13.27
2022-10-18T01:10:23.719Z,13.26
2022-10-18T01:12:50.795Z,13.37
2022-10-18T01:15:17.736Z,13.28
2022-10-18T01:18:03.469Z,13.24
2022-10-18T01:20:36.577Z,13.24
2022-10-18T01:23:15.972Z,13.14
2022-10-18T01:26:01.950Z,13.10
2022-10-18T01:28:32.069Z,13.07
2022-10-18T01:31:01.337Z,13.04
2022-10-18T01:33:39.601Z,13.06
2022-10-18T01:36:15.887Z,13.02
2022-10-18T01:38:43.555Z,13.15
2022-10-18T01:41:14.912Z,13.15
2022-10-18T01:43:44.060Z,13.15
2022-10-18T01:46:11.573Z,13.08
2022-10-18T01:48:39.060Z,13.08
2022-10-18T01:51:06.083Z,12.98
2022-10-18T01:53:34.348Z,13.01
2022-10-18T01:56:09.864Z,13.02
2022-10-18T01:58:41.846Z,13.07
2022-10-18T02:01:17.638Z,13.05
2022-10-18T02:03:47.630Z,13.08
2022-10-18T02:06:20.104Z,13.07
2022-10-18T02:08:51.994Z,12.98
2022-10-18T02:11:19.116Z,13.01
2022-10-18T02:13:57.706Z,12.95
2022-10-18T02:16:43.335Z,12.93
2022-10-18T02:19:13.639Z,12.95
2022-10-18T02:21:42.141Z,12.96
2022-10-18T02:24:10.126Z,13.03
2022-10-18T02:26:37.127Z,13.10
2022-10-18T02:29:04.350Z,13.02
2022-10-18T02:31:35.552Z,12.99
2022-10-18T02:34:06.419Z,12.93
2022-10-18T02:36:35.914Z,13.02
2022-10-18T02:39:04.428Z,13.00
2022-10-18T02:41:32.085Z,12.92
2022-10-18T02:43:59.295Z,12.97
2022-10-18T02:48:54.236Z,12.93
2022-10-18T02:51:21.257Z,12.90
2022-10-18T02:53:48.348Z,12.93
2022-10-18T02:56:15.370Z,12.87
2022-10-18T02:58:42.393Z,12.86
2022-10-18T03:01:09.394Z,12.89
2022-10-18T03:03:36.488Z,12.85
2022-10-18T03:06:03.524Z,12.82
2022-10-18T03:08:30.732Z,12.77
2022-10-18T03:10:57.696Z,12.77
2022-10-18T03:13:24.923Z,12.83
2022-10-18T03:15:52.077Z,12.76
2022-10-18T03:18:19.056Z,12.86
2022-10-18T03:20:46.076Z,12.67
2022-10-18T03:23:13.111Z,12.65
2022-10-18T03:25:42.819Z,12.71
2022-10-18T03:28:12.802Z,12.67
2022-10-18T03:30:39.820Z,12.72
2022-10-18T03:33:06.881Z,12.61
2022-10-18T03:35:33.953Z,12.56
2022-10-18T03:38:01.066Z,12.64
2022-10-18T03:40:28.097Z,12.66
2022-10-18T03:42:55.182Z,12.62
2022-10-18T03:45:22.188Z,12.59
2022-10-18T03:47:49.245Z,12.55
2022-10-18T03:50:16.265Z,12.52
2022-10-18T03:52:43.288Z,12.53
2022-10-18T03:55:10.271Z,12.56
2022-10-18T03:57:37.263Z,12.61
2022-10-18T04:00:04.622Z,12.56
2022-10-18T04:02:38.971Z,12.55
2022-10-18T04:05:07.483Z,12.51
2022-10-18T04:10:01.857Z,12.49
2022-10-18T04:12:29.034Z,12.41
2022-10-18T04:14:56.180Z,12.44
2022-10-18T04:17:23.328Z,12.39
2022-10-18T04:19:50.353Z,12.35
2022-10-18T04:22:17.449Z,12.36
2022-10-18T04:24:44.452Z,12.35
2022-10-18T04:27:11.565Z,12.40
2022-10-18T04:29:38.645Z,12.30
2022-10-18T04:32:05.753Z,12.23
2022-10-18T04:34:32.784Z,12.16
2022-10-18T04:37:00.005Z,12.22
2022-10-18T04:39:27.100Z,12.32
2022-10-18T04:41:54.255Z,12.25
2022-10-18T04:44:21.275Z,12.12
2022-10-18T04:46:48.307Z,12.13
2022-10-18T04:49:15.247Z,12.10
2022-10-18T04:51:42.308Z,12.15
2022-10-18T04:54:09.287Z,12.09
2022-10-18T04:56:36.324Z,12.04
2022-10-18T04:59:03.445Z,12.07
2022-10-18T05:01:30.606Z,12.07
2022-10-18T05:03:57.617Z,12.05
2022-10-18T05:06:24.715Z,12.03
2022-10-18T05:08:51.807Z,11.95
2022-10-18T05:11:18.859Z,11.98
2022-10-18T05:13:47.274Z,11.99
2022-10-18T05:16:17.165Z,11.99
2022-10-18T05:18:44.544Z,11.96
2022-10-18T05:21:12.441Z,11.97
2022-10-18T05:23:39.768Z,12.00
2022-10-18T05:26:07.136Z,11.90
2022-10-18T05:28:39.806Z,11.86
2022-10-18T05:31:08.983Z,11.90
2022-10-18T05:33:36.352Z,12.07
2022-10-18T05:36:06.776Z,11.97
2022-10-18T05:38:42.878Z,11.97
2022-10-18T05:41:10.985Z,11.92
2022-10-18T05:43:39.100Z,11.88
2022-10-18T05:46:13.450Z,11.90
2022-10-18T05:48:42.104Z,11.87
2022-10-18T05:51:12.617Z,11.97
2022-10-18T05:54:05.082Z,11.97
2022-10-18T05:56:32.315Z,12.00
2022-10-18T05:58:59.395Z,12.06
2022-10-18T06:01:31.772Z,11.99
2022-10-18T06:04:02.594Z,12.06
2022-10-18T06:06:35.730Z,12.01
2022-10-18T06:09:05.462Z,12.09
2022-10-18T06:11:33.780Z,12.18
2022-10-18T06:14:05.361Z,12.23
2022-10-18T06:19:06.859Z,12.35
2022-10-18T06:21:35.839Z,12.39
2022-10-18T06:24:03.652Z,12.47
2022-10-18T06:26:37.605Z,12.54
2022-10-18T06:29:04.971Z,12.53
2022-10-18T06:31:42.235Z,12.62
2022-10-18T06:34:18.720Z,12.62
2022-10-18T06:37:14.657Z,12.71
2022-10-18T06:39:43.734Z,12.80
2022-10-18T06:42:13.213Z,12.97
2022-10-18T06:44:43.913Z,13.07
2022-10-18T06:47:14.235Z,13.26
2022-10-18T06:49:44.067Z,13.30
2022-10-18T06:52:11.232Z,13.36
2022-10-18T06:54:38.632Z,13.42
2022-10-18T06:57:06.970Z,13.44
2022-10-18T06:59:34.036Z,13.43
2022-10-18T07:02:01.288Z,13.56
2022-10-18T07:04:56.718Z,13.59
2022-10-18T07:07:33.251Z,13.65
2022-10-18T07:10:25.770Z,13.67
2022-10-18T07:13:07.999Z,13.71
2022-10-18T07:15:41.778Z,13.91
2022-10-18T07:18:09.120Z,13.94
2022-10-18T07:20:59.545Z,14.04
2022-10-18T07:23:26.699Z,14.34
2022-10-18T07:26:03.262Z,14.39
2022-10-18T07:28:35.483Z,14.52
2022-10-18T07:31:09.749Z,14.52
2022-10-18T07:33:55.797Z,14.59
2022-10-18T07:36:26.553Z,14.74
2022-10-18T07:39:02.885Z,14.88
2022-10-18T07:41:45.897Z,14.98
2022-10-18T07:44:15.577Z,15.05
2022-10-18T07:50:06.765Z,15.31
2022-10-18T07:52:39.710Z,15.41
2022-10-18T07:55:34.742Z,15.40
2022-10-18T07:58:05.232Z,15.54
2022-10-18T08:00:39.107Z,15.54
2022-10-18T08:03:12.875Z,15.54
2022-10-18T08:05:46.797Z,15.66
2022-10-18T08:08:17.586Z,15.75
2022-10-18T08:10:48.444Z,15.94
2022-10-18T08:13:37.313Z,15.95
2022-10-18T08:16:11.781Z,16.01
2022-10-18T08:18:42.746Z,16.05
2022-10-18T08:21:15.723Z,16.22
2022-10-18T08:23:43.724Z,16.48
2022-10-18T08:26:20.648Z,16.77
2022-10-18T08:28:53.953Z,17.24
2022-10-18T08:31:21.386Z,17.64
2022-10-18T08:33:50.470Z,17.41
2022-10-18T08:36:17.620Z,17.70
2022-10-18T08:38:53.163Z,17.97
2022-10-18T08:41:46.044Z,18.36
2022-10-18T08:44:29.302Z,18.52
2022-10-18T08:47:00.874Z,18.71
2022-10-18T08:49:46.903Z,18.80
2022-10-18T08:52:34.219Z,18.63
2022-10-18T08:55:13.820Z,18.78
2022-10-18T08:57:42.845Z,19.01
2022-10-18T09:00:25.997Z,19.36
2022-10-18T09:05:52.117Z,19.71
2022-10-18T09:08:32.825Z,19.76
2022-10-18T09:11:07.037Z,19.48
2022-10-18T09:13:53.068Z,19.83
2022-10-18T09:16:36.600Z,20.02
2022-10-18T09:19:03.648Z,19.83
2022-10-18T09:21:39.997Z,19.54
2022-10-18T09:24:28.164Z,19.44
2022-10-18T09:26:58.197Z,19.83
2022-10-18T09:29:27.654Z,20.19
2022-10-18T09:32:02.506Z,20.26
2022-10-18T09:34:55.269Z,20.28
2022-10-18T09:37:24.250Z,20.09
2022-10-18T09:39:55.112Z,20.44
2022-10-18T09:42:30.975Z,20.42
2022-10-18T09:45:22.783Z,20.73
2022-10-18T09:48:08.703Z,20.60
2022-10-18T09:50:48.854Z,20.65
2022-10-18T09:53:40.654Z,20.93
2022-10-18T09:56:20.738Z,21.11
2022-10-18T09:58:54.145Z,21.14
2022-10-18T10:01:26.552Z,21.10
2022-10-18T10:03:55.987Z,21.34
2022-10-18T10:06:25.907Z,21.57
2022-10-18T10:08:57.256Z,21.77
2022-10-18T10:11:30.253Z,21.52
2022-10-18T10:13:59.661Z,21.90
2022-10-18T10:16:29.844Z,21.69
2022-10-18T10:19:00.095Z,21.60
2022-10-18T10:21:30.375Z,22.00
2022-10-18T10:23:59.680Z,22.18
2022-10-18T10:26:46.273Z,21.99
2022-10-18T10:29:44.566Z,21.38
2022-10-18T10:32:21.072Z,21.90
2022-10-18T10:34:54.396Z,21.82
2022-10-18T10:37:35.473Z,22.17
2022-10-18T10:40:22.902Z,22.12
2022-10-18T10:43:36.410Z,22.17
2022-10-18T10:46:07.358Z,22.25
2022-10-18T10:48:40.670Z,22.45
2022-10-18T10:51:10.928Z,22.20
2022-10-18T10:53:40.775Z,21.84
2022-10-18T10:56:24.594Z,22.28
2022-10-18T10:58:54.959Z,22.38
2022-10-18T11:01:41.425Z,22.52
2022-10-18T11:04:30.477Z,22.48
2022-10-18T11:07:22.733Z,22.20
2022-10-18T11:10:05.506Z,22.43
2022-10-18T11:12:47.934Z,22.55
2022-10-18T11:15:28.782Z,22.61
2022-10-18T11:18:17.521Z,22.91
2022-10-18T11:20:55.686Z,23.12
2022-10-18T11:23:29.025Z,22.91
2022-10-18T11:26:13.532Z,23.12
2022-10-18T11:29:01.880Z,23.49
2022-10-18T11:32:11.402Z,22.93
2022-10-18T11:34:48.864Z,23.15
2022-10-18T11:37:31.249Z,22.95
2022-10-18T11:40:19.634Z,22.62
2022-10-18T11:43:01.380Z,22.76
2022-10-18T11:45:38.337Z,22.76
2022-10-18T11:48:24.206Z,22.79
2022-10-18T11:50:59.731Z,22.93
2022-10-18T11:53:29.951Z,22.64
2022-10-18T11:56:12.878Z,22.68
2022-10-18T11:58:59.315Z,22.82
2022-10-18T12:01:29.506Z,22.85
2022-10-18T12:04:03.628Z,22.72
2022-10-18T12:06:38.975Z,23.00
2022-10-18T12:09:28.906Z,23.28
2022-10-18T12:12:01.049Z,23.21
2022-10-18T12:14:33.375Z,23.39
2022-10-18T12:17:39.666Z,23.13
2022-10-18T12:19:57.275Z,23.17
2022-10-18T12:22:32.669Z,23.17
2022-10-18T12:25:00.191Z,23.20
2022-10-18T12:27:40.788Z,23.35
2022-10-18T12:30:32.240Z,23.16
2022-10-18T12:33:27.197Z,23.01
2022-10-18T12:36:04.422Z,22.99
2022-10-18T12:38:35.642Z,22.97
2022-10-18T12:41:04.433Z,22.72
2022-10-18T12:43:36.881Z,22.95
2022-10-18T12:46:13.619Z,22.93
2022-10-18T12:48:45.439Z,22.80
2022-10-18T12:51:15.185Z,22.87
2022-10-18T12:53:51.709Z,22.91
2022-10-18T12:56:28.161Z,22.60
2022-10-18T12:59:14.126Z,22.55
2022-10-18T13:01:50.761Z,22.97
2022-10-18T13:04:27.625Z,22.94
2022-10-18T13:06:58.061Z,22.91
2022-10-18T13:09:28.532Z,23.18
2022-10-18T13:12:10.724Z,23.41
2022-10-18T13:15:24.298Z,23.21
2022-10-18T13:18:04.460Z,22.93
2022-10-18T13:20:39.389Z,23.11
2022-10-18T13:23:28.968Z,22.99
2022-10-18T13:26:00.021Z,23.04
2022-10-18T13:28:30.077Z,22.90
2022-10-18T13:31:09.324Z,22.89
2022-10-18T13:33:39.031Z,22.87
2022-10-18T13:36:06.129Z,22.95
2022-10-18T13:38:42.304Z,22.85
2022-10-18T13:41:09.476Z,22.85
2022-10-18T13:43:58.556Z,22.85
2022-10-18T13:46:35.045Z,22.67
2022-10-18T13:49:17.366Z,23.00
2022-10-18T13:52:18.531Z,22.70
2022-10-18T13:55:04.200Z,22.59
2022-10-18T13:57:43.318Z,22.82
2022-10-18T14:00:38.290Z,22.89
2022-10-18T14:03:37.923Z,23.03
2022-10-18T14:06:22.598Z,22.87
2022-10-18T14:09:25.976Z,23.27
2022-10-18T14:12:14.743Z,23.04
2022-10-18T14:15:05.307Z,22.99
2022-10-18T14:17:42.696Z,22.82
2022-10-18T14:20:14.351Z,23.01
2022-10-18T14:23:00.367Z,22.99
2022-10-18T14:25:31.904Z,22.77
2022-10-18T14:28:14.408Z,22.68
2022-10-18T14:30:59.836Z,22.53
2022-10-18T14:33:35.850Z,22.47
2022-10-18T14:36:15.550Z,22.48
2022-10-18T14:38:51.753Z,22.35
2022-10-18T14:41:33.255Z,22.64
2022-10-18T14:44:15.966Z,22.52
2022-10-18T14:46:45.190Z,22.31
2022-10-18T14:49:13.767Z,22.30
2022-10-18T14:51:43.493Z,22.18
2022-10-18T14:54:39.001Z,22.13
2022-10-18T14:57:07.459Z,22.10
2022-10-18T14:59:44.875Z,22.15
2022-10-18T15:02:21.260Z,22.19
2022-10-18T15:04:57.712Z,22.14
2022-10-18T15:07:28.592Z,22.08
2022-10-18T15:09:59.395Z,22.08
2022-10-18T15:12:33.928Z,21.98
2022-10-18T15:15:27.338Z,21.95
2022-10-18T15:17:55.167Z,21.98
2022-10-18T15:20:34.178Z,21.86
2022-10-18T15:23:24.002Z,21.86
2022-10-18T15:25:53.940Z,21.80
2022-10-18T15:28:35.725Z,21.77
2022-10-18T15:31:04.660Z,21.73
2022-10-18T15:33:34.620Z,21.80
2022-10-18T15:36:29.630Z,21.52
2022-10-18T15:39:15.617Z,21.38
2022-10-18T15:41:54.149Z,21.31
2022-10-18T15:44:26.144Z,21.06
2022-10-18T15:47:09.011Z,20.92
2022-10-18T15:49:45.320Z,20.78
2022-10-18T15:52:21.755Z,20.62
2022-10-18T15:57:21.484Z,20.44
2022-10-18T15:59:54.910Z,20.18
2022-10-18T16:02:22.187Z,19.97
2022-10-18T16:04:49.409Z,19.88
2022-10-18T16:07:16.852Z,19.84
2022-10-18T16:09:44.157Z,19.64
2022-10-18T16:12:11.335Z,19.44
2022-10-18T16:14:38.438Z,19.34
2022-10-18T16:17:07.183Z,19.24
2022-10-18T16:19:34.471Z,19.14
2022-10-18T16:22:06.382Z,19.03
2022-10-18T16:24:34.134Z,18.98
2022-10-18T16:27:01.423Z,18.83
2022-10-18T16:29:31.939Z,18.72
2022-10-18T16:31:59.986Z,18.63
2022-10-18T16:34:27.614Z,18.53
2022-10-18T16:36:55.449Z,18.53
2022-10-18T16:39:23.381Z,18.47
2022-10-18T16:41:51.284Z,18.48
2022-10-18T16:44:19.136Z,18.37
2022-10-18T16:46:50.994Z,18.25
2022-10-18T16:49:24.435Z,18.17
2022-10-18T16:51:53.028Z,18.24
2022-10-18T16:54:20.174Z,18.23
2022-10-18T16:56:50.410Z,18.09
2022-10-18T16:59:28.755Z,18.07
2022-10-18T17:01:55.900Z,18.09
2022-10-18T17:04:23.127Z,18.08
2022-10-18T17:06:50.779Z,18.04
2022-10-18T17:09:17.874Z,18.05
2022-10-18T17:11:44.922Z,18.12
2022-10-18T17:14:11.948Z,18.22
2022-10-18T17:16:39.236Z,18.08
2022-10-18T17:19:07.950Z,18.03
2022-10-18T17:21:35.250Z,18.07
2022-10-18T17:24:04.199Z,18.00
2022-10-18T17:26:31.428Z,18.09
2022-10-18T17:29:00.143Z,18.11
2022-10-18T17:31:28.277Z,18.07
2022-10-18T17:33:55.428Z,18.03
2022-10-18T17:36:22.583Z,17.94
2022-10-18T17:38:50.623Z,17.83
2022-10-18T17:41:17.639Z,17.81
2022-10-18T17:43:44.840Z,17.83
2022-10-18T17:46:13.068Z,17.76
2022-10-18T17:48:40.708Z,17.61
2022-10-18T17:51:08.903Z,17.67
2022-10-18T17:53:36.170Z,17.80
2022-10-18T17:56:03.619Z,17.91
2022-10-18T17:58:31.359Z,17.98
2022-10-18T18:01:07.437Z,17.88
2022-10-18T18:03:34.523Z,17.87
2022-10-18T18:06:10.820Z,17.68
2022-10-18T18:08:37.864Z,17.61
2022-10-18T18:11:04.878Z,17.58
2022-10-18T18:13:31.901Z,17.52
2022-10-18T18:16:08.937Z,17.63
2022-10-18T18:18:36.036Z,17.51
2022-10-18T18:21:03.088Z,17.52
2022-10-18T18:23:30.132Z,17.46
2022-10-18T18:25:57.464Z,17.36
2022-10-18T18:28:24.645Z,17.29
2022-10-18T18:30:51.736Z,17.08
2022-10-18T18:33:18.745Z,17.01
2022-10-18T18:35:53.920Z,16.98
2022-10-18T18:38:20.955Z,16.79
2022-10-18T18:40:47.904Z,16.59
2022-10-18T18:43:29.679Z,16.52
2022-10-18T18:45:56.724Z,16.43
2022-10-18T18:48:23.754Z,16.36
2022-10-18T18:50:51.820Z,16.22
2022-10-18T18:53:19.152Z,16.24
2022-10-18T18:55:46.396Z,16.09
2022-10-18T18:58:13.352Z,16.03
2022-10-18T19:00:44.240Z,15.95
2022-10-18T19:03:12.283Z,15.92
2022-10-18T19:05:39.287Z,15.94
2022-10-18T19:08:06.616Z,15.89
2022-10-18T19:10:33.735Z,15.89
2022-10-18T19:13:00.749Z,15.87
2022-10-18T19:15:27.813Z,15.87
2022-10-18T19:17:55.675Z,15.83
2022-10-18T19:20:22.703Z,15.77
2022-10-18T19:22:49.719Z,15.71
2022-10-18T19:25:16.938Z,15.75
2022-10-18T19:27:43.982Z,15.67
2022-10-18T19:30:11.336Z,15.67
2022-10-18T19:32:38.450Z,15.69
2022-10-18T19:35:05.593Z,15.66
2022-10-18T19:37:33.114Z,15.58
2022-10-18T19:40:00.809Z,15.52
2022-10-18T19:42:31.299Z,15.47
2022-10-18T19:44:58.822Z,15.47
2022-10-18T19:47:25.913Z,15.47
2022-10-18T19:49:53.765Z,15.56
2022-10-18T19:52:20.857Z,15.52
2022-10-18T19:54:50.666Z,15.46
2022-10-18T19:57:17.749Z,15.44
2022-10-18T19:59:44.795Z,15.32
2022-10-18T20:02:17.867Z,15.31
2022-10-18T20:04:44.936Z,15.37
2022-10-18T20:07:11.988Z,15.34
2022-10-18T20:09:39.821Z,15.30
2022-10-18T20:12:06.947Z,15.25
2022-10-18T20:14:34.010Z,15.19
2022-10-18T20:17:01.082Z,15.16
2022-10-18T20:19:28.192Z,15.16
2022-10-18T20:21:56.169Z,15.11
2022-10-18T20:24:23.245Z,15.17
2022-10-18T20:26:50.341Z,15.11
2022-10-18T20:29:17.477Z,15.17
2022-10-18T20:31:44.510Z,15.06
2022-10-18T20:34:11.933Z,14.96
2022-10-18T20:36:39.544Z,14.97
2022-10-18T20:39:07.705Z,14.90
2022-10-18T20:41:39.760Z,14.91
2022-10-18T20:44:08.385Z,14.89
2022-10-18T20:46:36.544Z,14.94
2022-10-18T20:49:04.452Z,14.82
2022-10-18T20:51:33.530Z,14.86
2022-10-18T20:54:01.551Z,14.94
2022-10-18T20:56:28.768Z,14.92
2022-10-18T20:58:56.679Z,14.86
2022-10-18T21:01:25.092Z,14.88
2022-10-18T21:03:53.258Z,14.95
2022-10-18T21:06:21.848Z,14.93
2022-10-18T21:08:52.371Z,14.88
2022-10-18T21:11:19.653Z,15.01
2022-10-18T21:13:50.226Z,14.84
2022-10-18T21:16:17.228Z,14.83
2022-10-18T21:18:44.309Z,14.87
2022-10-18T21:23:43.832Z,14.72
2022-10-18T21:26:18.239Z,14.75
2022-10-18T21:28:45.453Z,14.67
2022-10-18T21:31:20.800Z,14.68
2022-10-18T21:33:52.150Z,14.62
2022-10-18T21:36:19.140Z,14.58
2022-10-18T21:38:46.493Z,14.52
2022-10-18T21:41:14.620Z,14.57
2022-10-18T21:43:43.041Z,14.63
2022-10-18T21:46:10.443Z,14.62
2022-10-18T21:48:38.044Z,14.59
2022-10-18T21:51:06.216Z,14.52
2022-10-18T21:53:33.907Z,14.54
2022-10-18T21:56:11.558Z,14.40
2022-10-18T21:58:38.732Z,14.42
2022-10-18T22:01:09.953Z,14.42
2022-10-18T22:03:37.175Z,14.40
2022-10-18T22:06:09.288Z,14.41
2022-10-18T22:08:36.402Z,14.36
2022-10-18T22:11:03.375Z,14.37
2022-10-18T22:13:30.793Z,14.36
2022-10-18T22:16:00.767Z,14.36
2022-10-18T22:18:27.846Z,14.27
2022-10-18T22:20:55.427Z,14.29
2022-10-18T22:23:22.469Z,14.34
2022-10-18T22:25:49.617Z,14.35
2022-10-18T22:28:16.672Z,14.34
2022-10-18T22:30:43.863Z,14.29
2022-10-18T22:33:11.119Z,14.24
2022-10-18T22:35:38.147Z,14.21
2022-10-18T22:38:05.308Z,14.27
2022-10-18T22:40:32.344Z,14.26
2022-10-18T22:42:59.460Z,14.20
2022-10-18T22:45:26.421Z,14.19
2022-10-18T22:47:53.492Z,14.11
2022-10-18T22:50:20.487Z,14.11
2022-10-18T22:52:48.383Z,14.11
2022-10-18T22:55:17.520Z,14.09
2022-10-18T22:57:44.504Z,14.06
2022-10-18T23:00:11.843Z,13.99
2022-10-18T23:02:38.853Z,14.01
2022-10-18T23:05:06.050Z,14.08
2022-10-18T23:07:33.083Z,14.09
2022-10-18T23:10:00.158Z,14.11
2022-10-18T23:12:27.209Z,14.09
2022-10-18T23:14:54.411Z,14.02
2022-10-18T23:17:21.488Z,13.96
2022-10-18T23:19:48.467Z,13.96
2022-10-18T23:22:16.788Z,14.00
2022-10-18T23:24:44.476Z,13.95
2022-10-18T23:27:11.460Z,13.94
2022-10-18T23:29:38.513Z,13.97
2022-10-18T23:32:06.829Z,13.99
2022-10-18T23:34:33.905Z,13.97
2022-10-18T23:37:00.982Z,13.92
2022-10-18T23:39:28.135Z,13.89
2022-10-18T23:41:55.177Z,13.85
2022-10-18T23:44:22.388Z,13.92
2022-10-18T23:46:49.477Z,13.88
2022-10-18T23:49:16.541Z,13.89
2022-10-18T23:51:43.605Z,13.89
2022-10-18T23:54:10.771Z,13.84
2022-10-18T23:56:37.814Z,13.90
2022-10-18T23:59:04.976Z,13.72
